createdAt,value
2024-05-09T00:00:45.558Z,4.80
2024-05-09T00:03:12.853Z,5.15
2024-05-09T00:05:44.068Z,4.82
2024-05-09T00:08:11.721Z,4.80
2024-05-09T00:10:40.403Z,4.72
2024-05-09T00:13:08.738Z,4.35
2024-05-09T00:15:36.694Z,4.40
2024-05-09T00:18:05.333Z,4.20
2024-05-09T00:20:38.527Z,4.15
2024-05-09T00:23:09.340Z,4.18
2024-05-09T00:25:37.230Z,4.85
2024-05-09T00:28:04.443Z,4.47
2024-05-09T00:30:35.673Z,4.57
2024-05-09T00:33:08.986Z,4.40
2024-05-09T00:35:37.289Z,4.60
2024-05-09T00:38:04.828Z,4.22
2024-05-09T00:40:40.251Z,4.82
2024-05-09T00:43:10.215Z,4.88
2024-05-09T00:45:37.362Z,4.72
2024-05-09T00:48:07.485Z,4.53
2024-05-09T00:50:38.012Z,4.13
2024-05-09T00:53:06.958Z,4.82
2024-05-09T00:55:36.653Z,4.47
2024-05-09T00:58:06.044Z,4.57
2024-05-09T01:00:38.997Z,4.43
2024-05-09T01:03:09.478Z,4.43
2024-05-09T01:05:39.080Z,5.07
2024-05-09T01:08:07.139Z,4.45
2024-05-09T01:10:35.813Z,4.35
2024-05-09T01:13:04.608Z,4.03
2024-05-09T01:15:31.928Z,4.47
2024-05-09T01:18:01.721Z,4.50
2024-05-09T01:20:39.153Z,4.57
2024-05-09T01:23:10.068Z,4.47
2024-05-09T01:25:37.423Z,5.07
2024-05-09T01:28:04.679Z,4.50
2024-05-09T01:30:35.260Z,4.25
2024-05-09T01:33:06.129Z,4.90
2024-05-09T01:38:02.571Z,3.95
2024-05-09T01:40:37.135Z,4.70
2024-05-09T01:43:07.665Z,4.78
2024-05-09T01:45:34.817Z,4.65
2024-05-09T01:48:02.546Z,4.05
2024-05-09T01:50:38.006Z,4.57
2024-05-09T01:53:14.073Z,4.53
2024-05-09T01:55:42.090Z,4.65
2024-05-09T01:58:09.602Z,4.25
2024-05-09T02:00:40.764Z,4.72
2024-05-09T02:03:13.011Z,4.45
2024-05-09T02:05:43.157Z,4.57
2024-05-09T02:08:15.396Z,4.13
2024-05-09T02:10:44.121Z,4.13
2024-05-09T02:13:11.393Z,4.15
2024-05-09T02:15:38.432Z,4.40
2024-05-09T02:18:06.146Z,4.63
2024-05-09T02:20:36.456Z,3.90
2024-05-09T02:23:06.156Z,4.53
2024-05-09T02:25:36.740Z,4.10
2024-05-09T02:28:03.737Z,4.10
2024-05-09T02:30:38.795Z,4.45
2024-05-09T02:33:10.808Z,4.90
2024-05-09T02:35:39.948Z,4.78
2024-05-09T02:38:09.535Z,4.18
2024-05-09T02:40:39.338Z,4.72
2024-05-09T02:45:35.489Z,4.85
2024-05-09T02:48:02.922Z,4.45
2024-05-09T02:50:37.163Z,4.53
2024-05-09T02:53:10.126Z,4.72
2024-05-09T02:55:38.089Z,5.13
2024-05-09T02:58:06.957Z,4.68
2024-05-09T03:00:39.494Z,4.95
2024-05-09T03:03:10.998Z,5.38
2024-05-09T03:05:40.473Z,5.32
2024-05-09T03:08:08.003Z,4.65
2024-05-09T03:10:37.425Z,4.80
2024-05-09T03:13:12.896Z,4.88
2024-05-09T03:15:41.255Z,4.88
2024-05-09T03:18:09.053Z,4.75
2024-05-09T03:20:37.178Z,5.03
2024-05-09T03:23:06.402Z,4.93
2024-05-09T03:25:34.636Z,4.65
2024-05-09T03:28:01.769Z,4.93
2024-05-09T03:30:38.948Z,4.88
2024-05-09T03:33:15.533Z,5.05
2024-05-09T03:35:43.882Z,4.72
2024-05-09T03:38:11.199Z,4.63
2024-05-09T03:40:49.020Z,5.03
2024-05-09T03:43:16.830Z,5.10
2024-05-09T03:45:44.097Z,5.30
2024-05-09T03:48:12.678Z,4.95
2024-05-09T03:50:40.117Z,5.40
2024-05-09T03:53:10.575Z,5.03
2024-05-09T03:58:08.040Z,4.43
2024-05-09T04:00:38.801Z,4.70
2024-05-09T04:03:09.718Z,5.07
2024-05-09T04:05:41.337Z,5.35
2024-05-09T04:08:09.850Z,4.90
2024-05-09T04:10:37.016Z,4.88
2024-05-09T04:13:04.487Z,4.78
2024-05-09T04:15:31.992Z,4.97
2024-05-09T04:17:59.424Z,4.90
2024-05-09T04:20:37.359Z,5.07
2024-05-09T04:23:08.615Z,5.18
2024-05-09T04:25:36.206Z,5.30
2024-05-09T04:28:03.249Z,5.25
2024-05-09T04:30:36.763Z,5.03
2024-05-09T04:33:08.276Z,5.28
2024-05-09T04:38:05.800Z,5.18
2024-05-09T04:40:35.906Z,5.35
2024-05-09T04:43:05.054Z,5.07
2024-05-09T04:45:32.103Z,5.72
2024-05-09T04:47:59.224Z,5.57
2024-05-09T04:50:35.433Z,6.10
2024-05-09T04:53:06.878Z,5.68
2024-05-09T04:55:34.429Z,5.28
2024-05-09T04:58:01.870Z,5.57
2024-05-09T05:00:35.804Z,4.95
2024-05-09T05:03:07.211Z,5.47
2024-05-09T05:08:05.682Z,5.63
2024-05-09T05:10:36.278Z,4.55
2024-05-09T05:13:21.092Z,5.38
2024-05-09T05:15:50.198Z,5.32
2024-05-09T05:18:18.202Z,5.35
2024-05-09T05:20:45.721Z,4.53
2024-05-09T05:23:15.041Z,4.70
2024-05-09T05:25:42.646Z,5.07
2024-05-09T05:28:11.200Z,4.65
2024-05-09T05:30:39.083Z,5.32
2024-05-09T05:33:07.607Z,5.63
2024-05-09T05:35:35.988Z,5.10
2024-05-09T05:38:09.657Z,5.05
2024-05-09T05:40:38.849Z,5.65
2024-05-09T05:43:08.648Z,5.13
2024-05-09T05:45:35.832Z,5.20
2024-05-09T05:48:07.155Z,5.82
2024-05-09T05:50:37.234Z,6.25
2024-05-09T05:53:07.409Z,5.55
2024-05-09T05:55:35.513Z,5.20
2024-05-09T05:58:02.899Z,5.75
2024-05-09T06:00:37.411Z,5.65
2024-05-09T06:03:06.673Z,5.68
2024-05-09T06:05:36.233Z,5.63
2024-05-09T06:08:03.287Z,5.47
2024-05-09T06:10:37.612Z,5.97
2024-05-09T06:13:07.368Z,5.68
2024-05-09T06:15:34.423Z,5.95
2024-05-09T06:18:01.847Z,6.53
2024-05-09T06:20:35.652Z,7.20
2024-05-09T06:23:05.927Z,6.45
2024-05-09T06:25:33.281Z,8.35
2024-05-09T06:28:01.137Z,7.15
2024-05-09T06:30:36.831Z,7.47
2024-05-09T06:33:08.973Z,7.65
2024-05-09T06:35:36.830Z,7.43
2024-05-09T06:38:04.268Z,6.97
2024-05-09T06:40:37.354Z,6.30
2024-05-09T06:43:11.764Z,6.25
2024-05-09T06:45:39.868Z,7.18
2024-05-09T06:48:08.351Z,7.68
2024-05-09T06:50:38.098Z,6.72
2024-05-09T06:53:09.718Z,6.15
2024-05-09T06:58:06.983Z,6.50
2024-05-09T07:00:39.097Z,6.18
2024-05-09T07:03:14.734Z,6.63
2024-05-09T07:05:44.116Z,6.47
2024-05-09T07:08:11.925Z,5.82
2024-05-09T07:10:39.013Z,6.47
2024-05-09T07:13:13.331Z,6.47
2024-05-09T07:15:41.531Z,5.93
2024-05-09T07:18:17.381Z,5.80
2024-05-09T07:20:46.614Z,5.85
2024-05-09T07:23:14.106Z,5.20
2024-05-09T07:25:41.853Z,5.18
2024-05-09T07:28:17.206Z,5.47
2024-05-09T07:30:44.847Z,5.32
2024-05-09T07:33:23.158Z,5.72
2024-05-09T07:35:52.951Z,5.00
2024-05-09T07:38:20.229Z,5.60
2024-05-09T07:40:47.354Z,4.90
2024-05-09T07:43:15.279Z,5.97
2024-05-09T07:45:51.270Z,5.15
2024-05-09T07:52:39.106Z,4.45
2024-05-09T07:53:50.562Z,5.18
2024-05-09T07:56:22.300Z,4.18
2024-05-09T07:58:52.694Z,4.55
2024-05-09T08:01:20.736Z,4.32
2024-05-09T08:03:48.281Z,4.93
2024-05-09T08:06:15.451Z,4.28
2024-05-09T08:08:42.458Z,4.00
2024-05-09T08:11:09.468Z,4.32
2024-05-09T08:13:36.324Z,4.45
2024-05-09T08:16:03.598Z,4.07
2024-05-09T08:18:30.785Z,4.60
2024-05-09T08:20:58.085Z,4.53
2024-05-09T08:23:25.085Z,4.90
2024-05-09T08:25:53.041Z,4.68
2024-05-09T08:28:20.104Z,4.80
2024-05-09T08:30:47.388Z,4.10
2024-05-09T08:33:14.591Z,4.07
2024-05-09T08:35:41.476Z,3.85
2024-05-09T08:38:09.049Z,4.00
2024-05-09T08:40:37.779Z,3.70
2024-05-09T08:43:11.427Z,4.35
2024-05-09T08:45:43.576Z,4.38
2024-05-09T08:48:14.727Z,3.75
2024-05-09T08:50:43.089Z,4.20
2024-05-09T08:53:10.261Z,4.45
2024-05-09T08:55:41.527Z,4.13
2024-05-09T08:58:17.221Z,3.75
2024-05-09T09:00:46.305Z,3.95
2024-05-09T09:03:18.054Z,3.80
2024-05-09T09:06:05.383Z,4.32
2024-05-09T09:08:32.532Z,4.32
2024-05-09T09:10:59.886Z,3.70
2024-05-09T09:13:28.988Z,3.75
2024-05-09T09:15:58.685Z,4.15
2024-05-09T09:20:55.561Z,4.20
2024-05-09T09:23:22.584Z,3.78
2024-05-09T09:25:49.709Z,3.97
2024-05-09T09:28:16.750Z,4.43
2024-05-09T09:30:44.280Z,4.78
2024-05-09T09:33:12.101Z,3.70
2024-05-09T09:35:42.059Z,4.95
2024-05-09T09:38:10.807Z,4.43
2024-05-09T09:40:49.544Z,3.88
2024-05-09T09:43:23.166Z,4.70
2024-05-09T09:45:52.237Z,3.78
2024-05-09T09:48:21.260Z,4.38
2024-05-09T09:50:50.833Z,4.32
2024-05-09T09:53:18.519Z,3.70
2024-05-09T09:55:46.529Z,4.57
2024-05-09T09:58:16.339Z,4.15
2024-05-09T10:00:44.937Z,4.30
2024-05-09T10:03:12.251Z,4.75
2024-05-09T10:05:42.103Z,4.10
2024-05-09T10:08:12.965Z,4.90
2024-05-09T10:10:45.520Z,3.60
2024-05-09T10:13:12.658Z,8.07
2024-05-09T10:15:47.146Z,5.18
2024-05-09T10:18:15.048Z,5.25
2024-05-09T10:20:46.341Z,4.93
2024-05-09T10:23:26.775Z,4.28
2024-05-09T10:25:57.457Z,5.57
2024-05-09T10:28:28.756Z,5.85
2024-05-09T10:31:13.544Z,4.25
2024-05-09T10:33:46.634Z,5.65
2024-05-09T10:36:31.513Z,4.80
2024-05-09T10:38:59.944Z,4.40
2024-05-09T10:41:26.865Z,4.95
2024-05-09T10:43:53.774Z,5.32
2024-05-09T10:46:20.779Z,5.32
2024-05-09T10:48:49.255Z,4.85
2024-05-09T10:51:21.578Z,5.00
2024-05-09T10:53:49.492Z,5.40
2024-05-09T10:56:17.201Z,4.18
2024-05-09T10:58:44.372Z,4.88
2024-05-09T11:01:13.480Z,5.57
2024-05-09T11:03:41.031Z,5.93
2024-05-09T11:06:09.800Z,5.22
2024-05-09T11:08:37.298Z,5.10
2024-05-09T11:11:07.740Z,5.90
2024-05-09T11:13:36.981Z,4.88
2024-05-09T11:16:05.338Z,4.60
2024-05-09T11:18:37.885Z,6.07
2024-05-09T11:21:12.688Z,4.85
2024-05-09T11:23:40.252Z,5.28
2024-05-09T11:26:07.436Z,5.35
2024-05-09T11:28:35.400Z,5.82
2024-05-09T11:31:10.388Z,4.93
2024-05-09T11:33:43.720Z,5.60
2024-05-09T11:36:11.071Z,5.63
2024-05-09T11:38:39.187Z,6.03
2024-05-09T11:41:07.440Z,5.68
2024-05-09T11:43:34.407Z,6.03
2024-05-09T11:46:02.904Z,5.70
2024-05-09T11:48:30.661Z,6.38
2024-05-09T11:50:57.807Z,6.03
2024-05-09T11:53:24.692Z,6.57
2024-05-09T11:55:51.622Z,6.22
2024-05-09T11:58:19.308Z,5.68
2024-05-09T12:00:47.084Z,5.32
2024-05-09T12:03:14.819Z,5.93
2024-05-09T12:05:42.302Z,6.22
2024-05-09T12:08:09.743Z,5.63
2024-05-09T12:10:37.340Z,6.20
2024-05-09T12:13:06.494Z,5.78
2024-05-09T12:15:37.547Z,5.88
2024-05-09T12:18:08.007Z,5.03
2024-05-09T12:20:38.632Z,5.63
2024-05-09T12:23:09.478Z,5.65
2024-05-09T12:25:37.793Z,5.60
2024-05-09T12:28:05.050Z,5.95
2024-05-09T12:30:37.521Z,6.20
2024-05-09T12:33:12.744Z,5.90
2024-05-09T12:35:43.529Z,6.05
2024-05-09T12:38:13.911Z,6.05
2024-05-09T12:40:40.915Z,4.95
2024-05-09T12:43:08.875Z,5.60
2024-05-09T12:45:37.487Z,6.30
2024-05-09T12:48:07.439Z,5.85
2024-05-09T12:50:35.087Z,5.53
2024-05-09T12:53:03.875Z,6.38
2024-05-09T12:55:40.376Z,6.68
2024-05-09T12:58:15.801Z,4.97
2024-05-09T13:00:43.335Z,6.10
2024-05-09T13:03:10.620Z,5.85
2024-05-09T13:05:37.698Z,5.50
2024-05-09T13:08:05.097Z,6.50
2024-05-09T13:10:33.375Z,5.35
2024-05-09T13:13:01.921Z,6.22
2024-05-09T13:15:31.117Z,5.75
2024-05-09T13:18:01.996Z,5.07
2024-05-09T13:20:33.800Z,5.85
2024-05-09T13:23:05.503Z,6.45
2024-05-09T13:25:34.839Z,5.68
2024-05-09T13:28:07.637Z,5.20
2024-05-09T13:30:40.249Z,6.05
2024-05-09T13:33:14.036Z,6.47
2024-05-09T13:35:49.223Z,6.38
2024-05-09T13:38:21.343Z,5.47
2024-05-09T13:40:49.251Z,6.90
2024-05-09T13:43:17.599Z,5.75
2024-05-09T13:45:44.937Z,5.93
2024-05-09T13:48:12.092Z,5.65
2024-05-09T13:50:39.456Z,7.05
2024-05-09T13:53:07.819Z,5.95
2024-05-09T13:55:38.933Z,5.90
2024-05-09T13:58:06.961Z,5.72
2024-05-09T14:00:44.147Z,6.55
2024-05-09T14:03:17.639Z,6.55
2024-05-09T14:05:46.768Z,5.78
2024-05-09T14:08:15.588Z,5.63
2024-05-09T14:10:45.093Z,6.82
2024-05-09T14:13:13.092Z,6.88
2024-05-09T14:15:40.618Z,6.50
2024-05-09T14:18:11.424Z,5.72
2024-05-09T14:20:40.904Z,7.10
2024-05-09T14:23:07.879Z,5.60
2024-05-09T14:25:38.896Z,7.00
2024-05-09T14:28:08.952Z,6.55
2024-05-09T14:30:37.942Z,6.55
2024-05-09T14:33:08.682Z,6.50
2024-05-09T14:35:38.436Z,8.00
2024-05-09T14:38:07.166Z,6.50
2024-05-09T14:40:41.353Z,6.32
2024-05-09T14:43:12.492Z,6.50
2024-05-09T14:45:40.243Z,7.65
2024-05-09T14:48:07.885Z,5.85
2024-05-09T14:50:38.480Z,7.25
2024-05-09T14:53:08.584Z,7.63
2024-05-09T14:55:37.585Z,7.05
2024-05-09T14:58:10.569Z,6.90
2024-05-09T15:00:44.593Z,6.38
2024-05-09T15:03:15.359Z,6.05
2024-05-09T15:05:42.689Z,6.35
2024-05-09T15:08:09.685Z,5.65
2024-05-09T15:10:37.551Z,7.43
2024-05-09T15:13:07.979Z,6.90
2024-05-09T15:15:37.065Z,5.70
2024-05-09T15:18:05.146Z,6.70
2024-05-09T15:20:36.034Z,6.18
2024-05-09T15:23:07.019Z,7.30
2024-05-09T15:28:01.909Z,7.38
2024-05-09T15:30:32.126Z,6.15
2024-05-09T15:33:03.403Z,7.32
2024-05-09T15:35:30.680Z,7.22
2024-05-09T15:38:00.362Z,7.47
2024-05-09T15:40:36.147Z,6.68
2024-05-09T15:43:07.845Z,6.80
2024-05-09T15:45:35.685Z,8.10
2024-05-09T15:48:03.672Z,8.13
2024-05-09T15:50:37.638Z,8.25
2024-05-09T15:53:08.920Z,8.63
2024-05-09T15:55:40.213Z,8.05
2024-05-09T15:58:07.780Z,8.50
2024-05-09T16:00:40.064Z,8.48
2024-05-09T16:03:13.636Z,8.43
2024-05-09T16:05:44.228Z,7.45
2024-05-09T16:08:12.520Z,8.50
2024-05-09T16:10:44.216Z,8.07
2024-05-09T16:13:12.473Z,8.38
2024-05-09T16:15:39.702Z,7.88
2024-05-09T16:18:08.097Z,7.72
2024-05-09T16:20:40.060Z,7.90
2024-05-09T16:23:10.568Z,8.38
2024-05-09T16:25:37.851Z,9.20
2024-05-09T16:28:08.754Z,9.82
2024-05-09T16:30:40.452Z,9.27
2024-05-09T16:33:08.624Z,10.05
2024-05-09T16:35:37.074Z,8.98
2024-05-09T16:38:04.475Z,9.85
2024-05-09T16:40:37.990Z,11.20
2024-05-09T16:43:11.329Z,10.23
2024-05-09T16:45:40.179Z,9.98
2024-05-09T16:48:08.355Z,10.27
2024-05-09T16:50:36.508Z,10.68
2024-05-09T16:53:06.607Z,10.70
2024-05-09T16:58:02.625Z,9.75
2024-05-09T17:00:39.179Z,10.98
2024-05-09T17:03:10.814Z,10.68
2024-05-09T17:05:38.888Z,10.38
2024-05-09T17:08:06.859Z,10.88
2024-05-09T17:10:35.261Z,10.85
2024-05-09T17:13:04.761Z,9.52
2024-05-09T17:15:33.546Z,9.70
2024-05-09T17:18:01.907Z,10.07
2024-05-09T17:20:33.626Z,10.02
2024-05-09T17:23:04.827Z,10.38
2024-05-09T17:25:32.607Z,11.40
2024-05-09T17:28:06.093Z,11.55
2024-05-09T17:30:36.878Z,11.35
2024-05-09T17:33:07.474Z,10.68
2024-05-09T17:35:36.156Z,10.60
2024-05-09T17:38:03.753Z,11.90
2024-05-09T17:40:34.645Z,10.95
2024-05-09T17:43:05.156Z,11.30
2024-05-09T17:45:33.024Z,11.63
2024-05-09T17:48:00.751Z,11.52
2024-05-09T17:50:34.968Z,11.48
2024-05-09T17:53:04.842Z,11.30
2024-05-09T17:55:32.123Z,11.70
2024-05-09T17:57:59.347Z,12.40
2024-05-09T18:00:37.474Z,11.30
2024-05-09T18:03:08.767Z,12.50
2024-05-09T18:05:37.262Z,12.48
2024-05-09T18:08:06.323Z,12.55
2024-05-09T18:10:37.364Z,13.05
2024-05-09T18:13:08.934Z,12.60
2024-05-09T18:15:36.492Z,12.35
2024-05-09T18:18:04.536Z,10.75
2024-05-09T18:20:40.288Z,12.15
2024-05-09T18:23:13.272Z,11.25
2024-05-09T18:25:40.891Z,12.30
2024-05-09T18:28:08.436Z,13.13
2024-05-09T18:30:37.014Z,12.13
2024-05-09T18:33:07.162Z,13.15
2024-05-09T18:35:35.713Z,12.90
2024-05-09T18:38:03.288Z,13.23
2024-05-09T18:40:34.628Z,12.40
2024-05-09T18:43:06.465Z,12.35
2024-05-09T18:45:37.876Z,12.68
2024-05-09T18:48:06.618Z,12.80
2024-05-09T18:50:37.913Z,13.35
2024-05-09T18:53:07.708Z,12.95
2024-05-09T18:55:35.069Z,12.50
2024-05-09T18:58:03.159Z,12.35
2024-05-09T19:00:35.767Z,12.48
2024-05-09T19:03:09.699Z,13.98
2024-05-09T19:05:39.005Z,12.00
2024-05-09T19:08:07.946Z,13.10
2024-05-09T19:10:36.471Z,11.90
2024-05-09T19:13:08.645Z,12.35
2024-05-09T19:15:39.438Z,12.68
2024-05-09T19:18:11.195Z,13.27
2024-05-09T19:20:38.922Z,13.35
2024-05-09T19:23:07.070Z,14.02
2024-05-09T19:25:35.054Z,12.68
2024-05-09T19:28:02.945Z,12.65
2024-05-09T19:30:38.003Z,13.80
2024-05-09T19:33:09.450Z,14.90
2024-05-09T19:35:37.171Z,13.38
2024-05-09T19:38:06.265Z,13.38
2024-05-09T19:40:34.687Z,14.27
2024-05-09T19:43:04.991Z,13.70
2024-05-09T19:48:01.869Z,15.40
2024-05-09T19:50:37.184Z,14.88
2024-05-09T19:53:10.107Z,13.30
2024-05-09T19:55:37.505Z,15.25
2024-05-09T19:58:07.102Z,14.25
2024-05-09T20:00:37.425Z,15.15
2024-05-09T20:03:06.894Z,16.08
2024-05-09T20:05:34.332Z,14.93
2024-05-09T20:08:01.443Z,15.65
2024-05-09T20:10:32.583Z,15.25
2024-05-09T20:13:02.023Z,15.35
2024-05-09T20:15:29.202Z,15.30
2024-05-09T20:17:56.453Z,15.82
2024-05-09T20:20:33.399Z,15.65
2024-05-09T20:23:08.593Z,14.70
2024-05-09T20:25:35.640Z,16.08
2024-05-09T20:28:02.790Z,14.70
2024-05-09T20:30:32.871Z,16.10
2024-05-09T20:33:09.603Z,16.58
2024-05-09T20:35:37.211Z,16.35
2024-05-09T20:38:04.884Z,15.77
2024-05-09T20:40:35.899Z,15.15
2024-05-09T20:43:06.847Z,15.93
2024-05-09T20:45:35.787Z,15.73
2024-05-09T20:48:03.276Z,16.05
2024-05-09T20:50:37.523Z,15.23
2024-05-09T20:53:13.515Z,16.00
2024-05-09T20:55:41.842Z,14.77
2024-05-09T20:58:09.840Z,15.23
2024-05-09T21:00:40.801Z,14.90
2024-05-09T21:03:11.543Z,14.57
2024-05-09T21:05:39.512Z,15.15
2024-05-09T21:08:07.025Z,14.85
2024-05-09T21:10:35.245Z,15.57
2024-05-09T21:13:04.038Z,14.73
2024-05-09T21:15:31.808Z,15.95
2024-05-09T21:17:59.059Z,14.23
2024-05-09T21:20:31.655Z,15.00
2024-05-09T21:23:00.774Z,15.10
2024-05-09T21:25:27.902Z,15.02
2024-05-09T21:27:54.923Z,16.23
2024-05-09T21:30:32.223Z,15.20
2024-05-09T21:33:10.433Z,15.50
2024-05-09T21:35:38.754Z,14.50
2024-05-09T21:38:05.869Z,16.17
2024-05-09T21:40:35.288Z,16.15
2024-05-09T21:43:04.752Z,16.55
2024-05-09T21:45:32.429Z,15.27
2024-05-09T21:47:59.646Z,16.17
2024-05-09T21:50:35.418Z,17.25
2024-05-09T21:53:06.944Z,15.98
2024-05-09T21:55:35.215Z,16.65
2024-05-09T21:58:02.453Z,16.08
2024-05-09T22:00:36.913Z,16.48
2024-05-09T22:03:07.104Z,16.42
2024-05-09T22:05:35.211Z,16.55
2024-05-09T22:08:02.373Z,16.65
2024-05-09T22:10:34.177Z,15.85
2024-05-09T22:13:05.860Z,14.93
2024-05-09T22:15:39.053Z,15.98
2024-05-09T22:18:11.156Z,15.68
2024-05-09T22:20:45.448Z,13.73
2024-05-09T22:23:13.649Z,14.98
2024-05-09T22:25:40.654Z,14.68
2024-05-09T22:28:07.819Z,15.57
2024-05-09T22:30:39.121Z,15.13
2024-05-09T22:33:11.675Z,14.00
2024-05-09T22:35:40.095Z,16.00
2024-05-09T22:38:07.171Z,15.25
2024-05-09T22:40:44.852Z,14.73
2024-05-09T22:43:24.265Z,14.35
2024-05-09T22:45:54.919Z,15.93
2024-05-09T22:48:23.958Z,14.68
2024-05-09T22:50:51.773Z,14.52
2024-05-09T22:53:18.663Z,14.50
2024-05-09T22:55:45.625Z,15.57
2024-05-09T22:58:12.640Z,15.38
2024-05-09T23:00:40.006Z,13.88
2024-05-09T23:03:07.071Z,14.45
2024-05-09T23:05:34.167Z,13.52
2024-05-09T23:08:02.408Z,14.05
2024-05-09T23:10:35.699Z,14.63
2024-05-09T23:13:05.524Z,13.80
2024-05-09T23:15:32.732Z,14.77
2024-05-09T23:17:59.887Z,14.80
2024-05-09T23:20:35.854Z,14.38
2024-05-09T23:23:06.894Z,15.30
2024-05-09T23:25:34.183Z,15.23
2024-05-09T23:28:01.276Z,15.13
2024-05-09T23:30:36.205Z,13.68
2024-05-09T23:33:06.841Z,14.05
2024-05-09T23:35:33.883Z,14.52
2024-05-09T23:38:00.876Z,14.68
2024-05-09T23:40:37.477Z,14.80
2024-05-09T23:43:08.241Z,14.65
2024-05-09T23:45:36.657Z,14.02
2024-05-09T23:48:04.255Z,13.75
2024-05-09T23:50:35.961Z,14.50
2024-05-09T23:53:06.722Z,13.77
2024-05-09T23:55:34.931Z,14.27
2024-05-09T23:58:02.037Z,13.63
